sensor_id;sensor_type;location;lat;lon;timestamp;P1;durP1;ratioP1;P2;durP2;ratioP2
73841;SDS011;62184;52.006;5.924;2024-02-15T00:02:02;3.20;;;1.90;;
73841;SDS011;62184;52.006;5.924;2024-02-15T00:04:32;3.20;;;2.00;;
73841;SDS011;62184;52.006;5.924;2024-02-15T00:06:58;3.10;;;1.85;;
73841;SDS011;62184;52.006;5.924;2024-02-15T00:09:25;3.10;;;1.90;;
73841;SDS011;62184;52.006;5.924;2024-02-15T00:11:51;3.20;;;2.20;;
73841;SDS011;62184;52.006;5.924;2024-02-15T00:14:17;3.42;;;2.33;;
73841;SDS011;62184;52.006;5.924;2024-02-15T00:16:44;3.50;;;2.60;;
73841;SDS011;62184;52.006;5.924;2024-02-15T00:19:11;3.60;;;2.97;;
73841;SDS011;62184;52.006;5.924;2024-02-15T00:21:42;3.60;;;3.17;;
73841;SDS011;62184;52.006;5.924;2024-02-15T00:24:09;4.20;;;3.80;;
73841;SDS011;62184;52.006;5.924;2024-02-15T00:26:35;4.70;;;4.30;;
73841;SDS011;62184;52.006;5.924;2024-02-15T00:29:02;5.15;;;4.75;;
73841;SDS011;62184;52.006;5.924;2024-02-15T00:31:28;5.65;;;5.25;;
73841;SDS011;62184;52.006;5.924;2024-02-15T00:33:54;6.97;;;6.47;;
73841;SDS011;62184;52.006;5.924;2024-02-15T00:36:21;7.70;;;7.20;;
73841;SDS011;62184;52.006;5.924;2024-02-15T00:38:50;9.00;;;8.40;;
73841;SDS011;62184;52.006;5.924;2024-02-15T00:41:16;11.23;;;10.50;;
73841;SDS011;62184;52.006;5.924;2024-02-15T00:43:43;12.10;;;11.30;;
73841;SDS011;62184;52.006;5.924;2024-02-15T00:46:09;12.47;;;11.67;;
73841;SDS011;62184;52.006;5.924;2024-02-15T00:48:35;12.80;;;12.00;;
73841;SDS011;62184;52.006;5.924;2024-02-15T00:51:02;13.10;;;12.30;;
73841;SDS011;62184;52.006;5.924;2024-02-15T00:53:29;13.00;;;12.20;;
73841;SDS011;62184;52.006;5.924;2024-02-15T00:55:58;13.00;;;12.20;;
73841;SDS011;62184;52.006;5.924;2024-02-15T00:58:25;13.70;;;12.80;;
73841;SDS011;62184;52.006;5.924;2024-02-15T01:00:52;13.15;;;12.35;;
73841;SDS011;62184;52.006;5.924;2024-02-15T01:03:18;13.80;;;12.90;;
73841;SDS011;62184;52.006;5.924;2024-02-15T01:05:45;14.10;;;13.20;;
73841;SDS011;62184;52.006;5.924;2024-02-15T01:08:12;14.20;;;13.20;;
73841;SDS011;62184;52.006;5.924;2024-02-15T01:10:38;14.00;;;13.10;;
73841;SDS011;62184;52.006;5.924;2024-02-15T01:13:07;13.68;;;12.77;;
73841;SDS011;62184;52.006;5.924;2024-02-15T01:15:33;13.73;;;12.82;;
73841;SDS011;62184;52.006;5.924;2024-02-15T01:18:00;13.90;;;13.00;;
73841;SDS011;62184;52.006;5.924;2024-02-15T01:20:26;13.85;;;12.95;;
73841;SDS011;62184;52.006;5.924;2024-02-15T01:22:53;13.80;;;12.90;;
73841;SDS011;62184;52.006;5.924;2024-02-15T01:25:19;13.15;;;12.35;;
73841;SDS011;62184;52.006;5.924;2024-02-15T01:27:45;13.97;;;13.07;;
73841;SDS011;62184;52.006;5.924;2024-02-15T01:30:15;13.60;;;12.70;;
73841;SDS011;62184;52.006;5.924;2024-02-15T01:32:41;13.20;;;12.35;;
73841;SDS011;62184;52.006;5.924;2024-02-15T01:35:08;13.23;;;12.43;;
73841;SDS011;62184;52.006;5.924;2024-02-15T01:37:35;13.30;;;12.40;;
73841;SDS011;62184;52.006;5.924;2024-02-15T01:40:01;13.60;;;12.70;;
73841;SDS011;62184;52.006;5.924;2024-02-15T01:42:28;13.25;;;12.45;;
73841;SDS011;62184;52.006;5.924;2024-02-15T01:44:55;13.40;;;12.50;;
73841;SDS011;62184;52.006;5.924;2024-02-15T01:47:24;13.00;;;12.20;;
73841;SDS011;62184;52.006;5.924;2024-02-15T01:49:51;13.23;;;12.43;;
73841;SDS011;62184;52.006;5.924;2024-02-15T01:52:19;12.90;;;12.10;;
73841;SDS011;62184;52.006;5.924;2024-02-15T01:54:45;13.00;;;12.20;;
73841;SDS011;62184;52.006;5.924;2024-02-15T01:57:12;12.93;;;12.13;;
73841;SDS011;62184;52.006;5.924;2024-02-15T01:59:38;13.00;;;12.20;;
73841;SDS011;62184;52.006;5.924;2024-02-15T02:02:06;12.65;;;11.85;;
73841;SDS011;62184;52.006;5.924;2024-02-15T02:04:41;13.03;;;12.23;;
73841;SDS011;62184;52.006;5.924;2024-02-15T02:07:08;13.50;;;12.60;;
73841;SDS011;62184;52.006;5.924;2024-02-15T02:09:34;13.27;;;12.38;;
73841;SDS011;62184;52.006;5.924;2024-02-15T02:12:01;13.35;;;12.55;;
73841;SDS011;62184;52.006;5.924;2024-02-15T02:14:27;13.30;;;12.50;;
73841;SDS011;62184;52.006;5.924;2024-02-15T02:16:54;13.20;;;12.40;;
73841;SDS011;62184;52.006;5.924;2024-02-15T02:19:20;13.02;;;12.23;;
73841;SDS011;62184;52.006;5.924;2024-02-15T02:21:49;12.85;;;12.05;;
73841;SDS011;62184;52.006;5.924;2024-02-15T02:24:17;13.02;;;12.23;;
73841;SDS011;62184;52.006;5.924;2024-02-15T02:26:50;12.80;;;12.00;;
73841;SDS011;62184;52.006;5.924;2024-02-15T02:29:18;13.27;;;12.37;;
73841;SDS011;62184;52.006;5.924;2024-02-15T02:31:45;11.00;;;10.30;;
73841;SDS011;62184;52.006;5.924;2024-02-15T02:34:11;10.90;;;10.20;;
73841;SDS011;62184;52.006;5.924;2024-02-15T02:36:37;10.70;;;10.00;;
73841;SDS011;62184;52.006;5.924;2024-02-15T02:39:04;10.90;;;10.20;;
73841;SDS011;62184;52.006;5.924;2024-02-15T02:41:30;10.88;;;10.18;;
73841;SDS011;62184;52.006;5.924;2024-02-15T02:43:59;10.90;;;10.20;;
73841;SDS011;62184;52.006;5.924;2024-02-15T02:46:26;10.77;;;10.07;;
73841;SDS011;62184;52.006;5.924;2024-02-15T02:48:52;10.80;;;10.10;;
73841;SDS011;62184;52.006;5.924;2024-02-15T02:51:19;10.63;;;9.93;;
73841;SDS011;62184;52.006;5.924;2024-02-15T02:53:45;11.10;;;10.40;;
73841;SDS011;62184;52.006;5.924;2024-02-15T02:56:12;10.98;;;10.27;;
73841;SDS011;62184;52.006;5.924;2024-02-15T02:58:38;11.32;;;10.63;;
73841;SDS011;62184;52.006;5.924;2024-02-15T03:01:07;11.20;;;10.50;;
73841;SDS011;62184;52.006;5.924;2024-02-15T03:03:33;10.80;;;10.10;;
73841;SDS011;62184;52.006;5.924;2024-02-15T03:06:00;11.13;;;10.43;;
73841;SDS011;62184;52.006;5.924;2024-02-15T03:08:27;10.95;;;10.25;;
73841;SDS011;62184;52.006;5.924;2024-02-15T03:10:53;12.00;;;11.10;;
73841;SDS011;62184;52.006;5.924;2024-02-15T03:13:19;11.10;;;10.40;;
73841;SDS011;62184;52.006;5.924;2024-02-15T03:15:46;10.70;;;10.00;;
73841;SDS011;62184;52.006;5.924;2024-02-15T03:18:16;11.00;;;10.30;;
73841;SDS011;62184;52.006;5.924;2024-02-15T03:20:42;11.07;;;10.38;;
73841;SDS011;62184;52.006;5.924;2024-02-15T03:23:09;11.40;;;10.67;;
73841;SDS011;62184;52.006;5.924;2024-02-15T03:25:35;10.95;;;10.25;;
73841;SDS011;62184;52.006;5.924;2024-02-15T03:28:02;10.90;;;10.20;;
73841;SDS011;62184;52.006;5.924;2024-02-15T03:30:29;11.20;;;10.50;;
73841;SDS011;62184;52.006;5.924;2024-02-15T03:32:57;11.57;;;10.67;;
73841;SDS011;62184;52.006;5.924;2024-02-15T03:35:27;11.00;;;10.30;;
73841;SDS011;62184;52.006;5.924;2024-02-15T03:37:53;11.35;;;10.65;;
73841;SDS011;62184;52.006;5.924;2024-02-15T03:40:20;11.35;;;10.65;;
73841;SDS011;62184;52.006;5.924;2024-02-15T03:42:48;11.20;;;10.50;;
73841;SDS011;62184;52.006;5.924;2024-02-15T03:45:14;11.00;;;10.30;;
73841;SDS011;62184;52.006;5.924;2024-02-15T03:47:41;10.97;;;10.27;;
73841;SDS011;62184;52.006;5.924;2024-02-15T03:50:08;11.30;;;10.60;;
73841;SDS011;62184;52.006;5.924;2024-02-15T03:52:37;11.20;;;10.50;;
73841;SDS011;62184;52.006;5.924;2024-02-15T03:55:05;11.40;;;10.70;;
73841;SDS011;62184;52.006;5.924;2024-02-15T03:57:32;11.13;;;10.43;;
73841;SDS011;62184;52.006;5.924;2024-02-15T03:59:59;11.48;;;10.77;;
73841;SDS011;62184;52.006;5.924;2024-02-15T04:02:26;11.27;;;10.57;;
73841;SDS011;62184;52.006;5.924;2024-02-15T04:04:53;11.20;;;10.50;;
73841;SDS011;62184;52.006;5.924;2024-02-15T04:07:19;11.33;;;10.63;;
73841;SDS011;62184;52.006;5.924;2024-02-15T04:09:49;11.30;;;10.60;;
73841;SDS011;62184;52.006;5.924;2024-02-15T04:12:15;11.30;;;10.60;;
73841;SDS011;62184;52.006;5.924;2024-02-15T04:14:42;11.10;;;10.40;;
73841;SDS011;62184;52.006;5.924;2024-02-15T04:17:09;11.30;;;10.60;;
73841;SDS011;62184;52.006;5.924;2024-02-15T04:19:35;11.05;;;10.35;;
73841;SDS011;62184;52.006;5.924;2024-02-15T04:22:02;10.85;;;10.15;;
73841;SDS011;62184;52.006;5.924;2024-02-15T04:24:28;11.20;;;10.50;;
73841;SDS011;62184;52.006;5.924;2024-02-15T04:26:57;10.93;;;10.23;;
73841;SDS011;62184;52.006;5.924;2024-02-15T04:29:24;11.40;;;10.65;;
73841;SDS011;62184;52.006;5.924;2024-02-15T04:31:50;11.10;;;10.40;;
73841;SDS011;62184;52.006;5.924;2024-02-15T04:34:17;11.03;;;10.33;;
73841;SDS011;62184;52.006;5.924;2024-02-15T04:36:43;11.70;;;11.00;;
73841;SDS011;62184;52.006;5.924;2024-02-15T04:39:13;11.50;;;10.80;;
73841;SDS011;62184;52.006;5.924;2024-02-15T04:41:39;11.50;;;10.80;;
73841;SDS011;62184;52.006;5.924;2024-02-15T04:44:08;11.40;;;10.70;;
73841;SDS011;62184;52.006;5.924;2024-02-15T04:46:34;11.63;;;10.82;;
73841;SDS011;62184;52.006;5.924;2024-02-15T04:49:01;11.30;;;10.60;;
73841;SDS011;62184;52.006;5.924;2024-02-15T04:51:27;11.30;;;10.60;;
73841;SDS011;62184;52.006;5.924;2024-02-15T04:53:53;11.18;;;10.48;;
73841;SDS011;62184;52.006;5.924;2024-02-15T04:56:20;11.30;;;10.60;;
73841;SDS011;62184;52.006;5.924;2024-02-15T04:58:46;11.10;;;10.40;;
73841;SDS011;62184;52.006;5.924;2024-02-15T05:01:16;11.13;;;10.43;;
73841;SDS011;62184;52.006;5.924;2024-02-15T05:03:43;11.23;;;10.52;;
73841;SDS011;62184;52.006;5.924;2024-02-15T05:06:10;11.18;;;10.48;;
73841;SDS011;62184;52.006;5.924;2024-02-15T05:08:37;11.50;;;10.80;;
73841;SDS011;62184;52.006;5.924;2024-02-15T05:11:05;11.43;;;10.73;;
73841;SDS011;62184;52.006;5.924;2024-02-15T05:13:31;11.10;;;10.40;;
73841;SDS011;62184;52.006;5.924;2024-02-15T05:15:58;11.43;;;10.73;;
73841;SDS011;62184;52.006;5.924;2024-02-15T05:18:27;11.80;;;11.10;;
73841;SDS011;62184;52.006;5.924;2024-02-15T05:20:53;12.60;;;11.80;;
73841;SDS011;62184;52.006;5.924;2024-02-15T05:23:20;12.45;;;11.65;;
73841;SDS011;62184;52.006;5.924;2024-02-15T05:25:46;12.10;;;11.40;;
73841;SDS011;62184;52.006;5.924;2024-02-15T05:28:13;11.70;;;11.00;;
73841;SDS011;62184;52.006;5.924;2024-02-15T05:30:39;11.45;;;10.75;;
73841;SDS011;62184;52.006;5.924;2024-02-15T05:33:05;11.30;;;10.60;;
73841;SDS011;62184;52.006;5.924;2024-02-15T05:35:34;11.27;;;10.57;;
73841;SDS011;62184;52.006;5.924;2024-02-15T05:38:01;11.23;;;10.52;;
73841;SDS011;62184;52.006;5.924;2024-02-15T05:40:27;11.30;;;10.60;;
73841;SDS011;62184;52.006;5.924;2024-02-15T05:42:57;11.45;;;10.75;;
73841;SDS011;62184;52.006;5.924;2024-02-15T05:45:30;11.40;;;10.70;;
73841;SDS011;62184;52.006;5.924;2024-02-15T05:47:57;11.53;;;10.83;;
73841;SDS011;62184;52.006;5.924;2024-02-15T05:50:23;11.95;;;11.15;;
73841;SDS011;62184;52.006;5.924;2024-02-15T05:52:53;11.80;;;11.00;;
73841;SDS011;62184;52.006;5.924;2024-02-15T05:55:19;11.60;;;10.88;;
73841;SDS011;62184;52.006;5.924;2024-02-15T05:57:46;11.68;;;10.88;;
73841;SDS011;62184;52.006;5.924;2024-02-15T06:00:13;12.05;;;11.25;;
73841;SDS011;62184;52.006;5.924;2024-02-15T06:02:40;12.32;;;11.52;;
73841;SDS011;62184;52.006;5.924;2024-02-15T06:05:07;12.00;;;11.20;;
73841;SDS011;62184;52.006;5.924;2024-02-15T06:07:33;12.40;;;11.60;;
73841;SDS011;62184;52.006;5.924;2024-02-15T06:10:03;12.27;;;11.48;;
73841;SDS011;62184;52.006;5.924;2024-02-15T06:12:30;12.50;;;11.70;;
73841;SDS011;62184;52.006;5.924;2024-02-15T06:14:57;12.23;;;11.43;;
73841;SDS011;62184;52.006;5.924;2024-02-15T06:17:23;12.50;;;11.70;;
73841;SDS011;62184;52.006;5.924;2024-02-15T06:19:49;12.30;;;11.50;;
73841;SDS011;62184;52.006;5.924;2024-02-15T06:22:16;12.35;;;11.55;;
73841;SDS011;62184;52.006;5.924;2024-02-15T06:24:42;12.20;;;11.40;;
73841;SDS011;62184;52.006;5.924;2024-02-15T06:27:11;12.97;;;12.17;;
73841;SDS011;62184;52.006;5.924;2024-02-15T06:29:38;12.70;;;11.90;;
73841;SDS011;62184;52.006;5.924;2024-02-15T06:32:04;12.20;;;11.40;;
73841;SDS011;62184;52.006;5.924;2024-02-15T06:34:31;12.27;;;11.48;;
73841;SDS011;62184;52.006;5.924;2024-02-15T06:36:59;12.20;;;11.40;;
73841;SDS011;62184;52.006;5.924;2024-02-15T06:39:25;12.30;;;11.50;;
73841;SDS011;62184;52.006;5.924;2024-02-15T06:41:52;12.20;;;11.50;;
73841;SDS011;62184;52.006;5.924;2024-02-15T06:44:21;12.60;;;11.80;;
73841;SDS011;62184;52.006;5.924;2024-02-15T06:46:47;12.48;;;11.68;;
73841;SDS011;62184;52.006;5.924;2024-02-15T06:49:13;12.52;;;11.73;;
73841;SDS011;62184;52.006;5.924;2024-02-15T06:51:40;12.68;;;11.88;;
73841;SDS011;62184;52.006;5.924;2024-02-15T06:54:06;12.50;;;11.70;;
73841;SDS011;62184;52.006;5.924;2024-02-15T06:56:35;13.02;;;12.23;;
73841;SDS011;62184;52.006;5.924;2024-02-15T06:59:02;12.48;;;11.68;;
73841;SDS011;62184;52.006;5.924;2024-02-15T07:01:31;12.43;;;11.65;;
73841;SDS011;62184;52.006;5.924;2024-02-15T07:03:57;12.30;;;11.50;;
73841;SDS011;62184;52.006;5.924;2024-02-15T07:06:24;12.20;;;11.40;;
73841;SDS011;62184;52.006;5.924;2024-02-15T07:08:50;12.50;;;11.70;;
73841;SDS011;62184;52.006;5.924;2024-02-15T07:11:16;12.38;;;11.57;;
73841;SDS011;62184;52.006;5.924;2024-02-15T07:13:43;12.75;;;11.95;;
73841;SDS011;62184;52.006;5.924;2024-02-15T07:16:09;12.45;;;11.70;;
73841;SDS011;62184;52.006;5.924;2024-02-15T07:18:38;12.52;;;11.73;;
73841;SDS011;62184;52.006;5.924;2024-02-15T07:21:05;12.77;;;11.98;;
73841;SDS011;62184;52.006;5.924;2024-02-15T07:23:31;13.40;;;12.60;;
73841;SDS011;62184;52.006;5.924;2024-02-15T07:25:57;12.70;;;11.90;;
73841;SDS011;62184;52.006;5.924;2024-02-15T07:28:24;13.00;;;12.20;;
73841;SDS011;62184;52.006;5.924;2024-02-15T07:30:51;12.00;;;11.30;;
73841;SDS011;62184;52.006;5.924;2024-02-15T07:33:18;12.45;;;11.65;;
73841;SDS011;62184;52.006;5.924;2024-02-15T07:35:47;12.20;;;11.40;;
73841;SDS011;62184;52.006;5.924;2024-02-15T07:38:13;12.50;;;11.70;;
73841;SDS011;62184;52.006;5.924;2024-02-15T07:40:40;12.43;;;11.63;;
73841;SDS011;62184;52.006;5.924;2024-02-15T07:43:06;12.60;;;11.80;;
73841;SDS011;62184;52.006;5.924;2024-02-15T07:45:33;12.57;;;11.77;;
73841;SDS011;62184;52.006;5.924;2024-02-15T07:47:59;13.43;;;12.63;;
73841;SDS011;62184;52.006;5.924;2024-02-15T07:50:26;13.27;;;12.48;;
73841;SDS011;62184;52.006;5.924;2024-02-15T07:52:55;13.60;;;12.80;;
73841;SDS011;62184;52.006;5.924;2024-02-15T07:55:21;13.07;;;12.27;;
73841;SDS011;62184;52.006;5.924;2024-02-15T07:57:48;13.20;;;12.40;;
73841;SDS011;62184;52.006;5.924;2024-02-15T08:00:14;11.95;;;11.15;;
73841;SDS011;62184;52.006;5.924;2024-02-15T08:02:42;12.50;;;11.70;;
73841;SDS011;62184;52.006;5.924;2024-02-15T08:05:09;11.40;;;10.70;;
73841;SDS011;62184;52.006;5.924;2024-02-15T08:07:37;10.40;;;9.70;;
73841;SDS011;62184;52.006;5.924;2024-02-15T08:10:09;7.80;;;7.30;;
73841;SDS011;62184;52.006;5.924;2024-02-15T08:12:36;7.68;;;7.18;;
73841;SDS011;62184;52.006;5.924;2024-02-15T08:15:03;10.40;;;9.70;;
73841;SDS011;62184;52.006;5.924;2024-02-15T08:17:30;10.53;;;9.83;;
73841;SDS011;62184;52.006;5.924;2024-02-15T08:19:56;10.50;;;9.80;;
73841;SDS011;62184;52.006;5.924;2024-02-15T08:22:23;9.20;;;8.60;;
73841;SDS011;62184;52.006;5.924;2024-02-15T08:24:49;10.10;;;9.40;;
73841;SDS011;62184;52.006;5.924;2024-02-15T08:27:20;9.90;;;9.20;;
73841;SDS011;62184;52.006;5.924;2024-02-15T08:29:47;10.20;;;9.50;;
73841;SDS011;62184;52.006;5.924;2024-02-15T08:32:13;11.10;;;10.40;;
73841;SDS011;62184;52.006;5.924;2024-02-15T08:34:39;10.98;;;10.27;;
73841;SDS011;62184;52.006;5.924;2024-02-15T08:37:06;9.93;;;9.23;;
73841;SDS011;62184;52.006;5.924;2024-02-15T08:39:32;10.30;;;9.60;;
73841;SDS011;62184;52.006;5.924;2024-02-15T08:42:00;10.77;;;10.07;;
73841;SDS011;62184;52.006;5.924;2024-02-15T08:44:29;11.07;;;10.37;;
73841;SDS011;62184;52.006;5.924;2024-02-15T08:46:55;10.63;;;9.93;;
73841;SDS011;62184;52.006;5.924;2024-02-15T08:49:22;10.50;;;9.80;;
73841;SDS011;62184;52.006;5.924;2024-02-15T08:51:48;11.15;;;10.45;;
73841;SDS011;62184;52.006;5.924;2024-02-15T08:54:15;10.10;;;9.40;;
73841;SDS011;62184;52.006;5.924;2024-02-15T08:56:41;10.57;;;9.87;;
73841;SDS011;62184;52.006;5.924;2024-02-15T08:59:07;10.45;;;9.75;;
73841;SDS011;62184;52.006;5.924;2024-02-15T09:01:36;10.40;;;9.70;;
73841;SDS011;62184;52.006;5.924;2024-02-15T09:04:03;11.48;;;10.68;;
73841;SDS011;62184;52.006;5.924;2024-02-15T09:06:30;11.25;;;10.55;;
73841;SDS011;62184;52.006;5.924;2024-02-15T09:08:56;11.90;;;11.10;;
73841;SDS011;62184;52.006;5.924;2024-02-15T09:11:27;11.88;;;11.07;;
73841;SDS011;62184;52.006;5.924;2024-02-15T09:13:54;11.93;;;11.13;;
73841;SDS011;62184;52.006;5.924;2024-02-15T09:16:21;11.10;;;10.40;;
73841;SDS011;62184;52.006;5.924;2024-02-15T09:18:50;11.73;;;10.93;;
73841;SDS011;62184;52.006;5.924;2024-02-15T09:21:16;10.80;;;10.10;;
73841;SDS011;62184;52.006;5.924;2024-02-15T09:23:43;11.50;;;10.70;;
73841;SDS011;62184;52.006;5.924;2024-02-15T09:26:09;11.52;;;10.73;;
73841;SDS011;62184;52.006;5.924;2024-02-15T09:28:35;11.65;;;10.85;;
73841;SDS011;62184;52.006;5.924;2024-02-15T09:31:02;11.73;;;10.93;;
73841;SDS011;62184;52.006;5.924;2024-02-15T09:33:29;11.38;;;10.57;;
73841;SDS011;62184;52.006;5.924;2024-02-15T09:35:58;11.50;;;10.70;;
73841;SDS011;62184;52.006;5.924;2024-02-15T09:38:24;11.63;;;10.83;;
73841;SDS011;62184;52.006;5.924;2024-02-15T09:40:51;11.77;;;10.97;;
73841;SDS011;62184;52.006;5.924;2024-02-15T09:43:17;11.98;;;11.18;;
73841;SDS011;62184;52.006;5.924;2024-02-15T09:45:44;12.02;;;11.23;;
73841;SDS011;62184;52.006;5.924;2024-02-15T09:48:10;12.18;;;11.38;;
73841;SDS011;62184;52.006;5.924;2024-02-15T09:50:37;12.05;;;11.25;;
73841;SDS011;62184;52.006;5.924;2024-02-15T09:53:08;12.83;;;12.03;;
73841;SDS011;62184;52.006;5.924;2024-02-15T09:55:35;12.70;;;11.90;;
73841;SDS011;62184;52.006;5.924;2024-02-15T09:58:05;12.33;;;11.53;;
73841;SDS011;62184;52.006;5.924;2024-02-15T10:00:31;12.30;;;11.50;;
73841;SDS011;62184;52.006;5.924;2024-02-15T10:02:58;12.30;;;11.50;;
73841;SDS011;62184;52.006;5.924;2024-02-15T10:05:27;12.75;;;11.95;;
73841;SDS011;62184;52.006;5.924;2024-02-15T10:07:54;12.70;;;11.90;;
73841;SDS011;62184;52.006;5.924;2024-02-15T10:10:24;12.20;;;11.40;;
73841;SDS011;62184;52.006;5.924;2024-02-15T10:12:51;12.70;;;11.90;;
73841;SDS011;62184;52.006;5.924;2024-02-15T10:15:29;13.00;;;12.20;;
73841;SDS011;62184;52.006;5.924;2024-02-15T10:17:57;12.60;;;11.80;;
73841;SDS011;62184;52.006;5.924;2024-02-15T10:20:25;12.50;;;11.70;;
73841;SDS011;62184;52.006;5.924;2024-02-15T10:22:52;12.60;;;11.80;;
73841;SDS011;62184;52.006;5.924;2024-02-15T10:25:37;12.73;;;11.93;;
73841;SDS011;62184;52.006;5.924;2024-02-15T10:28:04;12.93;;;12.13;;
73841;SDS011;62184;52.006;5.924;2024-02-15T10:30:33;12.98;;;12.18;;
73841;SDS011;62184;52.006;5.924;2024-02-15T10:33:00;12.90;;;12.10;;
73841;SDS011;62184;52.006;5.924;2024-02-15T10:35:27;12.40;;;11.60;;
73841;SDS011;62184;52.006;5.924;2024-02-15T10:38:05;12.63;;;11.82;;
73841;SDS011;62184;52.006;5.924;2024-02-15T10:40:33;12.60;;;11.80;;
73841;SDS011;62184;52.006;5.924;2024-02-15T10:43:03;12.88;;;12.07;;
73841;SDS011;62184;52.006;5.924;2024-02-15T10:45:31;12.90;;;12.10;;
73841;SDS011;62184;52.006;5.924;2024-02-15T10:48:00;12.50;;;11.70;;
73841;SDS011;62184;52.006;5.924;2024-02-15T10:50:27;12.70;;;11.90;;
73841;SDS011;62184;52.006;5.924;2024-02-15T10:52:54;12.43;;;11.63;;
73841;SDS011;62184;52.006;5.924;2024-02-15T10:55:26;12.20;;;11.40;;
73841;SDS011;62184;52.006;5.924;2024-02-15T10:58:06;12.07;;;11.27;;
73841;SDS011;62184;52.006;5.924;2024-02-15T11:00:33;12.50;;;11.70;;
73841;SDS011;62184;52.006;5.924;2024-02-15T11:03:01;12.05;;;11.25;;
73841;SDS011;62184;52.006;5.924;2024-02-15T11:05:29;12.20;;;11.40;;
73841;SDS011;62184;52.006;5.924;2024-02-15T11:07:58;12.30;;;11.50;;
73841;SDS011;62184;52.006;5.924;2024-02-15T11:10:25;12.18;;;11.38;;
73841;SDS011;62184;52.006;5.924;2024-02-15T11:12:55;12.20;;;11.40;;
73841;SDS011;62184;52.006;5.924;2024-02-15T11:18:07;12.10;;;11.30;;
73841;SDS011;62184;52.006;5.924;2024-02-15T11:20:46;12.23;;;11.43;;
73841;SDS011;62184;52.006;5.924;2024-02-15T11:23:13;12.73;;;11.93;;
73841;SDS011;62184;52.006;5.924;2024-02-15T11:25:50;12.70;;;11.90;;
73841;SDS011;62184;52.006;5.924;2024-02-15T11:31:52;12.43;;;11.63;;
73841;SDS011;62184;52.006;5.924;2024-02-15T11:37:08;12.40;;;11.60;;
73841;SDS011;62184;52.006;5.924;2024-02-15T11:39:40;12.20;;;11.40;;
73841;SDS011;62184;52.006;5.924;2024-02-15T11:45:05;12.77;;;11.98;;
73841;SDS011;62184;52.006;5.924;2024-02-15T11:47:33;12.70;;;11.90;;
73841;SDS011;62184;52.006;5.924;2024-02-15T11:50:05;12.45;;;11.65;;
73841;SDS011;62184;52.006;5.924;2024-02-15T11:52:34;12.20;;;11.40;;
73841;SDS011;62184;52.006;5.924;2024-02-15T11:55:04;12.40;;;11.60;;
73841;SDS011;62184;52.006;5.924;2024-02-15T11:57:32;12.70;;;11.87;;
73841;SDS011;62184;52.006;5.924;2024-02-15T11:59:58;12.50;;;11.70;;
73841;SDS011;62184;52.006;5.924;2024-02-15T12:02:27;12.40;;;11.60;;
73841;SDS011;62184;52.006;5.924;2024-02-15T12:04:53;12.47;;;11.67;;
73841;SDS011;62184;52.006;5.924;2024-02-15T12:07:20;12.95;;;12.15;;
73841;SDS011;62184;52.006;5.924;2024-02-15T12:09:47;12.23;;;11.48;;
73841;SDS011;62184;52.006;5.924;2024-02-15T12:12:14;11.93;;;11.23;;
73841;SDS011;62184;52.006;5.924;2024-02-15T12:14:40;12.35;;;11.55;;
73841;SDS011;62184;52.006;5.924;2024-02-15T12:17:07;12.27;;;11.50;;
73841;SDS011;62184;52.006;5.924;2024-02-15T12:19:37;11.80;;;11.10;;
73841;SDS011;62184;52.006;5.924;2024-02-15T12:22:03;11.60;;;10.90;;
73841;SDS011;62184;52.006;5.924;2024-02-15T12:24:30;11.88;;;11.18;;
73841;SDS011;62184;52.006;5.924;2024-02-15T12:27:00;11.68;;;10.98;;
73841;SDS011;62184;52.006;5.924;2024-02-15T12:29:27;12.32;;;11.52;;
73841;SDS011;62184;52.006;5.924;2024-02-15T12:31:53;11.77;;;11.07;;
73841;SDS011;62184;52.006;5.924;2024-02-15T12:34:20;11.70;;;11.00;;
73841;SDS011;62184;52.006;5.924;2024-02-15T12:36:49;11.80;;;11.10;;
73841;SDS011;62184;52.006;5.924;2024-02-15T12:39:15;13.00;;;12.20;;
73841;SDS011;62184;52.006;5.924;2024-02-15T12:41:50;13.00;;;12.20;;
73841;SDS011;62184;52.006;5.924;2024-02-15T12:44:17;13.57;;;12.77;;
73841;SDS011;62184;52.006;5.924;2024-02-15T12:46:44;13.75;;;12.93;;
73841;SDS011;62184;52.006;5.924;2024-02-15T12:49:12;13.10;;;12.20;;
73841;SDS011;62184;52.006;5.924;2024-02-15T12:55:06;13.60;;;12.70;;
73841;SDS011;62184;52.006;5.924;2024-02-15T12:57:37;13.80;;;12.90;;
73841;SDS011;62184;52.006;5.924;2024-02-15T13:00:04;13.20;;;12.30;;
73841;SDS011;62184;52.006;5.924;2024-02-15T13:02:32;13.40;;;12.50;;
73841;SDS011;62184;52.006;5.924;2024-02-15T13:04:59;13.45;;;12.55;;
73841;SDS011;62184;52.006;5.924;2024-02-15T13:07:28;13.00;;;12.10;;
73841;SDS011;62184;52.006;5.924;2024-02-15T13:09:54;13.20;;;12.30;;
73841;SDS011;62184;52.006;5.924;2024-02-15T13:12:20;12.90;;;12.00;;
73841;SDS011;62184;52.006;5.924;2024-02-15T13:14:47;13.40;;;12.50;;
73841;SDS011;62184;52.006;5.924;2024-02-15T13:17:13;13.50;;;12.60;;
73841;SDS011;62184;52.006;5.924;2024-02-15T13:19:44;13.50;;;12.70;;
73841;SDS011;62184;52.006;5.924;2024-02-15T13:22:11;13.40;;;12.60;;
73841;SDS011;62184;52.006;5.924;2024-02-15T13:24:40;13.10;;;12.30;;
73841;SDS011;62184;52.006;5.924;2024-02-15T13:27:06;13.10;;;12.20;;
73841;SDS011;62184;52.006;5.924;2024-02-15T13:29:33;13.30;;;12.50;;
73841;SDS011;62184;52.006;5.924;2024-02-15T13:31:59;13.35;;;12.50;;
73841;SDS011;62184;52.006;5.924;2024-02-15T13:34:26;13.10;;;12.20;;
73841;SDS011;62184;52.006;5.924;2024-02-15T13:36:52;13.07;;;12.18;;
73841;SDS011;62184;52.006;5.924;2024-02-15T13:39:18;13.18;;;12.35;;
73841;SDS011;62184;52.006;5.924;2024-02-15T13:41:47;13.40;;;12.50;;
73841;SDS011;62184;52.006;5.924;2024-02-15T13:44:14;13.50;;;12.60;;
73841;SDS011;62184;52.006;5.924;2024-02-15T13:46:40;13.43;;;12.52;;
73841;SDS011;62184;52.006;5.924;2024-02-15T13:49:06;13.02;;;12.13;;
73841;SDS011;62184;52.006;5.924;2024-02-15T13:51:33;13.40;;;12.50;;
73841;SDS011;62184;52.006;5.924;2024-02-15T13:53:59;13.45;;;12.55;;
73841;SDS011;62184;52.006;5.924;2024-02-15T13:56:26;13.40;;;12.50;;
73841;SDS011;62184;52.006;5.924;2024-02-15T13:58:55;13.80;;;12.90;;
73841;SDS011;62184;52.006;5.924;2024-02-15T14:01:22;13.30;;;12.40;;
73841;SDS011;62184;52.006;5.924;2024-02-15T14:03:48;13.10;;;12.20;;
73841;SDS011;62184;52.006;5.924;2024-02-15T14:06:15;13.55;;;12.65;;
73841;SDS011;62184;52.006;5.924;2024-02-15T14:08:43;13.40;;;12.50;;
73841;SDS011;62184;52.006;5.924;2024-02-15T14:11:10;13.70;;;12.80;;
73841;SDS011;62184;52.006;5.924;2024-02-15T14:13:36;13.50;;;12.60;;
73841;SDS011;62184;52.006;5.924;2024-02-15T14:16:05;13.98;;;13.07;;
73841;SDS011;62184;52.006;5.924;2024-02-15T14:18:32;13.68;;;12.77;;
73841;SDS011;62184;52.006;5.924;2024-02-15T14:20:58;13.90;;;13.00;;
73841;SDS011;62184;52.006;5.924;2024-02-15T14:23:24;13.50;;;12.63;;
73841;SDS011;62184;52.006;5.924;2024-02-15T14:25:51;13.48;;;12.57;;
73841;SDS011;62184;52.006;5.924;2024-02-15T14:28:17;13.50;;;12.60;;
73841;SDS011;62184;52.006;5.924;2024-02-15T14:30:44;13.53;;;12.63;;
73841;SDS011;62184;52.006;5.924;2024-02-15T14:33:13;13.60;;;12.70;;
73841;SDS011;62184;52.006;5.924;2024-02-15T14:35:39;13.23;;;12.33;;
73841;SDS011;62184;52.006;5.924;2024-02-15T14:38:06;13.50;;;12.60;;
73841;SDS011;62184;52.006;5.924;2024-02-15T14:40:34;13.70;;;12.80;;